sensor_id;sensor_type;location;lat;lon;timestamp;pressure;altitude;pressure_sealevel;temperature
75658;BMP280;64255;49.892;17.884;2023-04-03T00:00:17;99180.44;;;2.70
75658;BMP280;64255;49.892;17.884;2023-04-03T00:03:18;99176.03;;;3.02
75658;BMP280;64255;49.892;17.884;2023-04-03T00:06:05;99176.63;;;2.75
75658;BMP280;64255;49.892;17.884;2023-04-03T00:08:52;99171.44;;;2.60
75658;BMP280;64255;49.892;17.884;2023-04-03T00:11:39;99178.13;;;2.72
75658;BMP280;64255;49.892;17.884;2023-04-03T00:14:25;99175.81;;;2.85
75658;BMP280;64255;49.892;17.884;2023-04-03T00:17:12;99179.25;;;2.78
75658;BMP280;64255;49.892;17.884;2023-04-03T00:19:58;99178.59;;;2.60
75658;BMP280;64255;49.892;17.884;2023-04-03T00:22:45;99186.34;;;2.89
75658;BMP280;64255;49.892;17.884;2023-04-03T00:25:33;99180.72;;;2.83
75658;BMP280;64255;49.892;17.884;2023-04-03T00:28:20;99181.50;;;2.80
75658;BMP280;64255;49.892;17.884;2023-04-03T00:31:07;99178.44;;;2.85
75658;BMP280;64255;49.892;17.884;2023-04-03T00:33:53;99175.84;;;2.78
75658;BMP280;64255;49.892;17.884;2023-04-03T00:36:40;99189.56;;;2.62
75658;BMP280;64255;49.892;17.884;2023-04-03T00:39:27;99185.25;;;2.83
75658;BMP280;64255;49.892;17.884;2023-04-03T00:42:13;99194.66;;;2.91
75658;BMP280;64255;49.892;17.884;2023-04-03T00:47:46;99187.53;;;2.80
75658;BMP280;64255;49.892;17.884;2023-04-03T00:50:37;99189.44;;;2.76
75658;BMP280;64255;49.892;17.884;2023-04-03T00:53:37;99188.72;;;2.76
75658;BMP280;64255;49.892;17.884;2023-04-03T00:56:28;99195.25;;;2.53
75658;BMP280;64255;49.892;17.884;2023-04-03T00:59:23;99199.38;;;2.65
75658;BMP280;64255;49.892;17.884;2023-04-03T01:02:10;99196.63;;;2.72
75658;BMP280;64255;49.892;17.884;2023-04-03T01:04:57;99196.03;;;2.54
75658;BMP280;64255;49.892;17.884;2023-04-03T01:07:44;99194.22;;;2.40
75658;BMP280;64255;49.892;17.884;2023-04-03T01:10:31;99191.09;;;2.59
75658;BMP280;64255;49.892;17.884;2023-04-03T01:13:24;99191.09;;;2.59
75658;BMP280;64255;49.892;17.884;2023-04-03T01:16:10;99200.69;;;2.28
75658;BMP280;64255;49.892;17.884;2023-04-03T01:19:00;99188.84;;;2.54
75658;BMP280;64255;49.892;17.884;2023-04-03T01:21:53;99190.41;;;2.41
75658;BMP280;64255;49.892;17.884;2023-04-03T01:24:42;99187.47;;;2.31
75658;BMP280;64255;49.892;17.884;2023-04-03T01:27:29;99191.53;;;2.47
75658;BMP280;64255;49.892;17.884;2023-04-03T01:30:19;99194.97;;;2.37
75658;BMP280;64255;49.892;17.884;2023-04-03T01:33:06;99193.44;;;2.39
75658;BMP280;64255;49.892;17.884;2023-04-03T01:35:53;99191.31;;;2.12
75658;BMP280;64255;49.892;17.884;2023-04-03T01:38:39;99186.84;;;1.95
75658;BMP280;64255;49.892;17.884;2023-04-03T01:41:27;99190.66;;;1.90
75658;BMP280;64255;49.892;17.884;2023-04-03T01:44:14;99195.19;;;1.86
75658;BMP280;64255;49.892;17.884;2023-04-03T01:47:01;99196.22;;;2.07
75658;BMP280;64255;49.892;17.884;2023-04-03T01:49:47;99198.13;;;1.99
75658;BMP280;64255;49.892;17.884;2023-04-03T01:52:33;99196.31;;;1.85
75658;BMP280;64255;49.892;17.884;2023-04-03T01:55:20;99209.19;;;1.76
75658;BMP280;64255;49.892;17.884;2023-04-03T01:58:06;99201.22;;;1.86
75658;BMP280;64255;49.892;17.884;2023-04-03T02:00:53;99205.69;;;1.93
75658;BMP280;64255;49.892;17.884;2023-04-03T02:03:40;99210.97;;;2.00
75658;BMP280;64255;49.892;17.884;2023-04-03T02:06:26;99217.84;;;1.87
75658;BMP280;64255;49.892;17.884;2023-04-03T02:09:13;99220.38;;;2.09
75658;BMP280;64255;49.892;17.884;2023-04-03T02:11:59;99215.50;;;2.04
75658;BMP280;64255;49.892;17.884;2023-04-03T02:14:46;99221.47;;;2.22
75658;BMP280;64255;49.892;17.884;2023-04-03T02:17:32;99235.91;;;1.92
75658;BMP280;64255;49.892;17.884;2023-04-03T02:20:19;99229.47;;;1.97
75658;BMP280;64255;49.892;17.884;2023-04-03T02:23:06;99236.31;;;1.87
75658;BMP280;64255;49.892;17.884;2023-04-03T02:25:52;99237.44;;;1.90
75658;BMP280;64255;49.892;17.884;2023-04-03T02:28:39;99232.56;;;1.84
75658;BMP280;64255;49.892;17.884;2023-04-03T02:31:25;99240.47;;;1.88
75658;BMP280;64255;49.892;17.884;2023-04-03T02:34:12;99238.16;;;1.97
75658;BMP280;64255;49.892;17.884;2023-04-03T02:36:59;99233.59;;;2.05
75658;BMP280;64255;49.892;17.884;2023-04-03T02:39:45;99232.94;;;1.65
75658;BMP280;64255;49.892;17.884;2023-04-03T02:42:32;99238.56;;;1.89
75658;BMP280;64255;49.892;17.884;2023-04-03T02:45:18;99229.13;;;1.91
75658;BMP280;64255;49.892;17.884;2023-04-03T02:48:05;99240.88;;;1.54
75658;BMP280;64255;49.892;17.884;2023-04-03T02:50:52;99232.16;;;1.86
75658;BMP280;64255;49.892;17.884;2023-04-03T02:53:38;99246.50;;;1.81
75658;BMP280;64255;49.892;17.884;2023-04-03T02:56:25;99238.97;;;1.80
75658;BMP280;64255;49.892;17.884;2023-04-03T02:59:11;99253.28;;;1.82
75658;BMP280;64255;49.892;17.884;2023-04-03T03:01:58;99252.16;;;1.73
75658;BMP280;64255;49.892;17.884;2023-04-03T03:04:44;99248.00;;;1.86
75658;BMP280;64255;49.892;17.884;2023-04-03T03:07:31;99252.19;;;1.69
75658;BMP280;64255;49.892;17.884;2023-04-03T03:10:18;99251.78;;;1.70
75658;BMP280;64255;49.892;17.884;2023-04-03T03:13:04;99243.50;;;1.65
75658;BMP280;64255;49.892;17.884;2023-04-03T03:15:52;99251.44;;;1.61
75658;BMP280;64255;49.892;17.884;2023-04-03T03:18:38;99257.06;;;1.78
75658;BMP280;64255;49.892;17.884;2023-04-03T03:21:25;99249.53;;;1.73
75658;BMP280;64255;49.892;17.884;2023-04-03T03:24:11;99254.03;;;1.68
75658;BMP280;64255;49.892;17.884;2023-04-03T03:26:58;99258.97;;;1.37
75658;BMP280;64255;49.892;17.884;2023-04-03T03:29:44;99259.75;;;1.56
75658;BMP280;64255;49.892;17.884;2023-04-03T03:32:31;99252.94;;;1.48
75658;BMP280;64255;49.892;17.884;2023-04-03T03:35:17;99254.06;;;1.39
75658;BMP280;64255;49.892;17.884;2023-04-03T03:38:04;99257.81;;;1.42
75658;BMP280;64255;49.892;17.884;2023-04-03T03:40:51;99258.22;;;1.22
75658;BMP280;64255;49.892;17.884;2023-04-03T03:43:38;99261.22;;;1.21
75658;BMP280;64255;49.892;17.884;2023-04-03T03:46:24;99262.72;;;1.11
75658;BMP280;64255;49.892;17.884;2023-04-03T03:49:11;99265.00;;;1.13
75658;BMP280;64255;49.892;17.884;2023-04-03T03:51:57;99272.50;;;1.07
75658;BMP280;64255;49.892;17.884;2023-04-03T03:54:44;99269.94;;;1.32
75658;BMP280;64255;49.892;17.884;2023-04-03T03:57:30;99267.59;;;0.98
75658;BMP280;64255;49.892;17.884;2023-04-03T04:00:17;99273.63;;;1.02
75658;BMP280;64255;49.892;17.884;2023-04-03T04:03:04;99281.81;;;0.68
75658;BMP280;64255;49.892;17.884;2023-04-03T04:05:50;99284.84;;;0.70
75658;BMP280;64255;49.892;17.884;2023-04-03T04:08:37;99278.81;;;0.66
75658;BMP280;64255;49.892;17.884;2023-04-03T04:11:23;99294.63;;;0.70
75658;BMP280;64255;49.892;17.884;2023-04-03T04:14:10;99291.19;;;0.55
75658;BMP280;64255;49.892;17.884;2023-04-03T04:16:57;99294.56;;;0.55
75658;BMP280;64255;49.892;17.884;2023-04-03T04:19:43;99286.38;;;0.82
75658;BMP280;64255;49.892;17.884;2023-04-03T04:22:30;99298.09;;;0.88
75658;BMP280;64255;49.892;17.884;2023-04-03T04:25:16;99286.03;;;0.87
75658;BMP280;64255;49.892;17.884;2023-04-03T04:28:03;99302.53;;;0.73
75658;BMP280;64255;49.892;17.884;2023-04-03T04:30:50;99304.50;;;0.91
75658;BMP280;64255;49.892;17.884;2023-04-03T04:33:36;99301.38;;;0.64
75658;BMP280;64255;49.892;17.884;2023-04-03T04:36:23;99307.00;;;0.55
75658;BMP280;64255;49.892;17.884;2023-04-03T04:39:09;99308.56;;;0.70
75658;BMP280;64255;49.892;17.884;2023-04-03T04:41:55;99314.19;;;0.65
75658;BMP280;64255;49.892;17.884;2023-04-03T04:44:42;99312.72;;;0.71
75658;BMP280;64255;49.892;17.884;2023-04-03T04:47:29;99307.00;;;0.62
75658;BMP280;64255;49.892;17.884;2023-04-03T04:50:15;99307.41;;;0.64
75658;BMP280;64255;49.892;17.884;2023-04-03T04:53:02;99313.88;;;0.77
75658;BMP280;64255;49.892;17.884;2023-04-03T04:55:48;99316.81;;;0.61
75658;BMP280;64255;49.892;17.884;2023-04-03T04:58:35;99325.44;;;0.55
75658;BMP280;64255;49.892;17.884;2023-04-03T05:01:21;99329.59;;;0.59
75658;BMP280;64255;49.892;17.884;2023-04-03T05:04:08;99334.84;;;0.56
75658;BMP280;64255;49.892;17.884;2023-04-03T05:06:55;99337.88;;;0.58
75658;BMP280;64255;49.892;17.884;2023-04-03T05:09:41;99340.22;;;0.81
75658;BMP280;64255;49.892;17.884;2023-04-03T05:12:29;99349.59;;;0.68
75658;BMP280;64255;49.892;17.884;2023-04-03T05:15:15;99355.56;;;0.61
75658;BMP280;64255;49.892;17.884;2023-04-03T05:18:02;99345.41;;;0.63
75658;BMP280;64255;49.892;17.884;2023-04-03T05:20:49;99358.69;;;0.77
75658;BMP280;64255;49.892;17.884;2023-04-03T05:23:36;99368.00;;;0.57
75658;BMP280;64255;49.892;17.884;2023-04-03T05:26:22;99352.28;;;0.82
75658;BMP280;64255;49.892;17.884;2023-04-03T05:29:09;99363.22;;;0.81
75658;BMP280;64255;49.892;17.884;2023-04-03T05:31:56;99359.81;;;0.80
75658;BMP280;64255;49.892;17.884;2023-04-03T05:34:42;99360.97;;;0.86
75658;BMP280;64255;49.892;17.884;2023-04-03T05:37:29;99365.81;;;0.73
75658;BMP280;64255;49.892;17.884;2023-04-03T05:40:16;99372.16;;;0.65
75658;BMP280;64255;49.892;17.884;2023-04-03T05:43:02;99375.25;;;0.78
75658;BMP280;64255;49.892;17.884;2023-04-03T05:45:49;99370.41;;;0.84
75658;BMP280;64255;49.892;17.884;2023-04-03T05:48:36;99376.19;;;0.41
75658;BMP280;64255;49.892;17.884;2023-04-03T05:51:28;99380.53;;;0.82
75658;BMP280;64255;49.892;17.884;2023-04-03T05:54:27;99370.41;;;0.95
75658;BMP280;64255;49.892;17.884;2023-04-03T05:57:15;99383.56;;;0.84
75658;BMP280;64255;49.892;17.884;2023-04-03T06:00:04;99382.50;;;0.99
75658;BMP280;64255;49.892;17.884;2023-04-03T06:02:51;99382.16;;;1.08
75658;BMP280;64255;49.892;17.884;2023-04-03T06:05:38;99382.50;;;1.03
75658;BMP280;64255;49.892;17.884;2023-04-03T06:08:24;99384.06;;;1.15
75658;BMP280;64255;49.892;17.884;2023-04-03T06:11:11;99382.94;;;1.16
75658;BMP280;64255;49.892;17.884;2023-04-03T06:13:57;99388.19;;;1.08
75658;BMP280;64255;49.892;17.884;2023-04-03T06:16:44;99396.38;;;0.89
75658;BMP280;64255;49.892;17.884;2023-04-03T06:19:32;99397.88;;;0.83
75658;BMP280;64255;49.892;17.884;2023-04-03T06:22:18;99396.06;;;1.05
75658;BMP280;64255;49.892;17.884;2023-04-03T06:25:05;99396.06;;;1.01
75658;BMP280;64255;49.892;17.884;2023-04-03T06:27:52;99397.31;;;1.29
75658;BMP280;64255;49.892;17.884;2023-04-03T06:30:38;99406.69;;;1.23
75658;BMP280;64255;49.892;17.884;2023-04-03T06:33:25;99408.63;;;1.48
75658;BMP280;64255;49.892;17.884;2023-04-03T06:36:12;99397.19;;;1.00
75658;BMP280;64255;49.892;17.884;2023-04-03T06:38:58;99400.28;;;1.17
75658;BMP280;64255;49.892;17.884;2023-04-03T06:41:45;99402.56;;;1.36
75658;BMP280;64255;49.892;17.884;2023-04-03T06:44:31;99396.25;;;1.81
75658;BMP280;64255;49.892;17.884;2023-04-03T06:47:18;99400.03;;;1.80
75658;BMP280;64255;49.892;17.884;2023-04-03T06:50:05;99401.13;;;1.68
75658;BMP280;64255;49.892;17.884;2023-04-03T06:52:52;99401.16;;;1.86
75658;BMP280;64255;49.892;17.884;2023-04-03T06:55:38;99400.03;;;1.83
75658;BMP280;64255;49.892;17.884;2023-04-03T06:58:25;99407.19;;;2.01
75658;BMP280;64255;49.892;17.884;2023-04-03T07:01:17;99398.13;;;1.55
75658;BMP280;64255;49.892;17.884;2023-04-03T07:04:04;99406.22;;;0.99
75658;BMP280;64255;49.892;17.884;2023-04-03T07:06:50;99416.59;;;1.62
75658;BMP280;64255;49.892;17.884;2023-04-03T07:09:37;99419.94;;;1.45
75658;BMP280;64255;49.892;17.884;2023-04-03T07:12:23;99418.84;;;1.60
75658;BMP280;64255;49.892;17.884;2023-04-03T07:15:11;99424.50;;;1.62
75658;BMP280;64255;49.892;17.884;2023-04-03T07:17:57;99425.19;;;1.37
75658;BMP280;64255;49.892;17.884;2023-04-03T07:20:44;99430.03;;;1.17
75658;BMP280;64255;49.892;17.884;2023-04-03T07:23:30;99436.94;;;1.58
75658;BMP280;64255;49.892;17.884;2023-04-03T07:26:17;99433.13;;;1.45
75658;BMP280;64255;49.892;17.884;2023-04-03T07:29:03;99436.53;;;1.42
75658;BMP280;64255;49.892;17.884;2023-04-03T07:31:50;99432.75;;;1.35
75658;BMP280;64255;49.892;17.884;2023-04-03T07:34:36;99432.81;;;1.68
75658;BMP280;64255;49.892;17.884;2023-04-03T07:37:23;99440.78;;;1.90
75658;BMP280;64255;49.892;17.884;2023-04-03T07:40:10;99438.50;;;1.95
75658;BMP280;64255;49.892;17.884;2023-04-03T07:42:57;99446.44;;;2.03
75658;BMP280;64255;49.892;17.884;2023-04-03T07:45:44;99438.91;;;2.26
75658;BMP280;64255;49.892;17.884;2023-04-03T07:48:30;99440.03;;;2.11
75658;BMP280;64255;49.892;17.884;2023-04-03T07:51:17;99445.31;;;2.11
75658;BMP280;64255;49.892;17.884;2023-04-03T07:54:03;99447.19;;;2.14
75658;BMP280;64255;49.892;17.884;2023-04-03T07:56:50;99443.41;;;2.04
75658;BMP280;64255;49.892;17.884;2023-04-03T07:59:36;99443.03;;;1.88
75658;BMP280;64255;49.892;17.884;2023-04-03T08:02:23;99448.34;;;2.16
75658;BMP280;64255;49.892;17.884;2023-04-03T08:05:10;99451.72;;;2.28
75658;BMP280;64255;49.892;17.884;2023-04-03T08:07:57;99454.75;;;2.33
75658;BMP280;64255;49.892;17.884;2023-04-03T08:10:43;99450.88;;;2.71
75658;BMP280;64255;49.892;17.884;2023-04-03T08:13:34;99448.56;;;2.98
75658;BMP280;64255;49.892;17.884;2023-04-03T08:16:22;99455.09;;;2.68
75658;BMP280;64255;49.892;17.884;2023-04-03T08:19:10;99444.03;;;2.99
75658;BMP280;64255;49.892;17.884;2023-04-03T08:21:56;99456.53;;;2.80
75658;BMP280;64255;49.892;17.884;2023-04-03T08:24:43;99457.31;;;2.80
75658;BMP280;64255;49.892;17.884;2023-04-03T08:27:30;99448.63;;;3.58
75658;BMP280;64255;49.892;17.884;2023-04-03T08:30:16;99449.97;;;3.24
75658;BMP280;64255;49.892;17.884;2023-04-03T08:33:03;99454.31;;;3.56
75658;BMP280;64255;49.892;17.884;2023-04-03T08:35:50;99443.28;;;3.69
75658;BMP280;64255;49.892;17.884;2023-04-03T08:38:36;99451.13;;;3.83
75658;BMP280;64255;49.892;17.884;2023-04-03T08:41:41;99448.56;;;4.91
75658;BMP280;64255;49.892;17.884;2023-04-03T08:45:21;99448.09;;;5.54
75658;BMP280;64255;49.892;17.884;2023-04-03T08:48:23;99443.59;;;5.24
75658;BMP280;64255;49.892;17.884;2023-04-03T08:51:20;99457.38;;;4.46
75658;BMP280;64255;49.892;17.884;2023-04-03T08:54:48;99442.22;;;4.08
75658;BMP280;64255;49.892;17.884;2023-04-03T08:57:40;99450.56;;;3.54
75658;BMP280;64255;49.892;17.884;2023-04-03T09:03:45;99449.16;;;4.33
75658;BMP280;64255;49.892;17.884;2023-04-03T09:06:33;99439.88;;;3.65
75658;BMP280;64255;49.892;17.884;2023-04-03T09:09:35;99452.31;;;3.75
75658;BMP280;64255;49.892;17.884;2023-04-03T09:12:38;99454.38;;;4.44
75658;BMP280;64255;49.892;17.884;2023-04-03T09:15:26;99442.63;;;4.03
75658;BMP280;64255;49.892;17.884;2023-04-03T09:18:42;99445.75;;;3.31
75658;BMP280;64255;49.892;17.884;2023-04-03T09:21:41;99451.47;;;3.85
75658;BMP280;64255;49.892;17.884;2023-04-03T09:24:28;99452.19;;;4.35
75658;BMP280;64255;49.892;17.884;2023-04-03T09:27:17;99448.34;;;3.38
75658;BMP280;64255;49.892;17.884;2023-04-03T09:30:04;99442.38;;;3.90
75658;BMP280;64255;49.892;17.884;2023-04-03T09:32:57;99434.38;;;3.94
75658;BMP280;64255;49.892;17.884;2023-04-03T09:35:43;99458.72;;;3.07
75658;BMP280;64255;49.892;17.884;2023-04-03T09:38:31;99456.53;;;3.62
75658;BMP280;64255;49.892;17.884;2023-04-03T09:41:19;99452.34;;;3.68
75658;BMP280;64255;49.892;17.884;2023-04-03T09:44:29;99447.31;;;3.28
75658;BMP280;64255;49.892;17.884;2023-04-03T09:47:28;99454.50;;;3.24
75658;BMP280;64255;49.892;17.884;2023-04-03T09:53:07;99455.31;;;3.03
75658;BMP280;64255;49.892;17.884;2023-04-03T09:59:13;99465.91;;;3.06
75658;BMP280;64255;49.892;17.884;2023-04-03T10:02:41;99471.06;;;3.42
75658;BMP280;64255;49.892;17.884;2023-04-03T10:05:41;99470.81;;;3.08
75658;BMP280;64255;49.892;17.884;2023-04-03T10:08:34;99473.91;;;2.81
75658;BMP280;64255;49.892;17.884;2023-04-03T10:11:20;99471.28;;;2.81
75658;BMP280;64255;49.892;17.884;2023-04-03T10:14:17;99468.94;;;3.05
75658;BMP280;64255;49.892;17.884;2023-04-03T10:20:48;99464.13;;;4.12
75658;BMP280;64255;49.892;17.884;2023-04-03T10:26:58;99476.53;;;4.22
75658;BMP280;64255;49.892;17.884;2023-04-03T10:37:24;99469.38;;;4.61
75658;BMP280;64255;49.892;17.884;2023-04-03T10:43:36;99471.50;;;3.86
75658;BMP280;64255;49.892;17.884;2023-04-03T10:57:08;99477.41;;;4.50
75658;BMP280;64255;49.892;17.884;2023-04-03T11:00:20;99469.56;;;4.40
75658;BMP280;64255;49.892;17.884;2023-04-03T11:03:22;99470.16;;;4.93
75658;BMP280;64255;49.892;17.884;2023-04-03T11:06:15;99468.38;;;4.82
75658;BMP280;64255;49.892;17.884;2023-04-03T11:09:25;99458.91;;;4.81
75658;BMP280;64255;49.892;17.884;2023-04-03T11:13:07;99472.22;;;3.94
75658;BMP280;64255;49.892;17.884;2023-04-03T11:15:30;99465.44;;;5.86
75658;BMP280;64255;49.892;17.884;2023-04-03T11:18:49;99466.63;;;5.58
75658;BMP280;64255;49.892;17.884;2023-04-03T11:28:04;99469.22;;;5.89
75658;BMP280;64255;49.892;17.884;2023-04-03T11:37:50;99460.84;;;5.39
75658;BMP280;64255;49.892;17.884;2023-04-03T11:40:38;99451.59;;;5.98
75658;BMP280;64255;49.892;17.884;2023-04-03T11:43:29;99456.94;;;6.19
75658;BMP280;64255;49.892;17.884;2023-04-03T11:46:16;99447.19;;;5.88
75658;BMP280;64255;49.892;17.884;2023-04-03T11:49:03;99456.09;;;4.96
75658;BMP280;64255;49.892;17.884;2023-04-03T11:51:49;99459.19;;;4.14
75658;BMP280;64255;49.892;17.884;2023-04-03T11:54:46;99438.69;;;4.60
75658;BMP280;64255;49.892;17.884;2023-04-03T11:58:02;99444.00;;;5.22
75658;BMP280;64255;49.892;17.884;2023-04-03T12:01:02;99453.41;;;4.27
75658;BMP280;64255;49.892;17.884;2023-04-03T12:09:31;99448.28;;;5.67
75658;BMP280;64255;49.892;17.884;2023-04-03T12:12:31;99444.41;;;4.55
75658;BMP280;64255;49.892;17.884;2023-04-03T12:15:26;99438.13;;;4.76
75658;BMP280;64255;49.892;17.884;2023-04-03T12:18:53;99452.66;;;5.26
75658;BMP280;64255;49.892;17.884;2023-04-03T12:24:37;99438.41;;;5.16
75658;BMP280;64255;49.892;17.884;2023-04-03T12:27:40;99439.53;;;5.43
75658;BMP280;64255;49.892;17.884;2023-04-03T12:30:30;99442.06;;;4.95
75658;BMP280;64255;49.892;17.884;2023-04-03T12:37:03;99426.50;;;4.97
75658;BMP280;64255;49.892;17.884;2023-04-03T12:40:21;99426.88;;;4.96
75658;BMP280;64255;49.892;17.884;2023-04-03T12:46:20;99433.84;;;5.17
75658;BMP280;64255;49.892;17.884;2023-04-03T12:49:37;99427.91;;;4.40
75658;BMP280;64255;49.892;17.884;2023-04-03T12:52:45;99420.88;;;5.19
75658;BMP280;64255;49.892;17.884;2023-04-03T12:55:34;99424.91;;;5.82
75658;BMP280;64255;49.892;17.884;2023-04-03T12:58:26;99433.75;;;6.39
75658;BMP280;64255;49.892;17.884;2023-04-03T13:01:22;99444.09;;;5.15
75658;BMP280;64255;49.892;17.884;2023-04-03T13:04:12;99431.59;;;4.12
75658;BMP280;64255;49.892;17.884;2023-04-03T13:06:59;99429.81;;;4.74
75658;BMP280;64255;49.892;17.884;2023-04-03T13:09:57;99428.31;;;5.82
75658;BMP280;64255;49.892;17.884;2023-04-03T13:12:49;99427.00;;;5.91
75658;BMP280;64255;49.892;17.884;2023-04-03T13:15:46;99429.13;;;4.66
75658;BMP280;64255;49.892;17.884;2023-04-03T13:18:36;99428.06;;;5.22
75658;BMP280;64255;49.892;17.884;2023-04-03T13:21:35;99427.59;;;5.78
75658;BMP280;64255;49.892;17.884;2023-04-03T13:24:22;99433.38;;;5.73
75658;BMP280;64255;49.892;17.884;2023-04-03T13:27:12;99429.28;;;5.45
75658;BMP280;64255;49.892;17.884;2023-04-03T13:30:04;99418.94;;;5.23
75658;BMP280;64255;49.892;17.884;2023-04-03T13:32:51;99428.31;;;4.38
75658;BMP280;64255;49.892;17.884;2023-04-03T13:35:40;99425.19;;;4.82
75658;BMP280;64255;49.892;17.884;2023-04-03T13:38:30;99412.66;;;4.82
75658;BMP280;64255;49.892;17.884;2023-04-03T13:41:38;99416.84;;;5.11
75658;BMP280;64255;49.892;17.884;2023-04-03T13:44:38;99416.81;;;5.65
75658;BMP280;64255;49.892;17.884;2023-04-03T13:47:25;99419.91;;;5.60
75658;BMP280;64255;49.892;17.884;2023-04-03T13:53:11;99422.06;;;5.18
75658;BMP280;64255;49.892;17.884;2023-04-03T13:56:16;99419.34;;;4.60
75658;BMP280;64255;49.892;17.884;2023-04-03T14:04:59;99419.81;;;3.71
75658;BMP280;64255;49.892;17.884;2023-04-03T14:07:46;99419.19;;;4.40
75658;BMP280;64255;49.892;17.884;2023-04-03T14:10:33;99418.09;;;4.37
75658;BMP280;64255;49.892;17.884;2023-04-03T14:13:20;99413.94;;;4.70
75658;BMP280;64255;49.892;17.884;2023-04-03T14:16:07;99407.72;;;5.39
75658;BMP280;64255;49.892;17.884;2023-04-03T14:18:54;99413.00;;;4.53
75658;BMP280;64255;49.892;17.884;2023-04-03T14:21:40;99410.81;;;4.03
75658;BMP280;64255;49.892;17.884;2023-04-03T14:24:27;99418.25;;;4.19
75658;BMP280;64255;49.892;17.884;2023-04-03T14:27:28;99419.38;;;3.76
75658;BMP280;64255;49.892;17.884;2023-04-03T14:30:27;99415.53;;;3.81
75658;BMP280;64255;49.892;17.884;2023-04-03T14:33:18;99404.22;;;4.60
75658;BMP280;64255;49.892;17.884;2023-04-03T14:36:22;99408.91;;;5.07
75658;BMP280;64255;49.892;17.884;2023-04-03T14:39:17;99411.63;;;4.73
75658;BMP280;64255;49.892;17.884;2023-04-03T14:42:04;99417.91;;;3.71
75658;BMP280;64255;49.892;17.884;2023-04-03T14:44:52;99413.78;;;4.12
75658;BMP280;64255;49.892;17.884;2023-04-03T14:47:51;99404.25;;;4.53
75658;BMP280;64255;49.892;17.884;2023-04-03T14:50:38;99403.78;;;4.27
75658;BMP280;64255;49.892;17.884;2023-04-03T14:53:24;99404.78;;;4.75
75658;BMP280;64255;49.892;17.884;2023-04-03T14:56:26;99407.84;;;4.74
75658;BMP280;64255;49.892;17.884;2023-04-03T14:59:14;99401.31;;;4.82
75658;BMP280;64255;49.892;17.884;2023-04-03T15:02:00;99404.25;;;4.57
75658;BMP280;64255;49.892;17.884;2023-04-03T15:04:47;99418.88;;;4.34
75658;BMP280;64255;49.892;17.884;2023-04-03T15:07:38;99418.09;;;4.37
75658;BMP280;64255;49.892;17.884;2023-04-03T15:10:28;99418.13;;;4.68
75658;BMP280;64255;49.892;17.884;2023-04-03T15:13:15;99415.06;;;4.38
75658;BMP280;64255;49.892;17.884;2023-04-03T15:16:02;99413.59;;;4.30
75658;BMP280;64255;49.892;17.884;2023-04-03T15:18:49;99407.16;;;4.66
75658;BMP280;64255;49.892;17.884;2023-04-03T15:21:35;99406.25;;;4.80
75658;BMP280;64255;49.892;17.884;2023-04-03T15:24:22;99407.41;;;4.79
75658;BMP280;64255;49.892;17.884;2023-04-03T15:27:10;99409.91;;;4.59
75658;BMP280;64255;49.892;17.884;2023-04-03T15:29:57;99411.06;;;4.19
75658;BMP280;64255;49.892;17.884;2023-04-03T15:32:45;99417.88;;;3.79
75658;BMP280;64255;49.892;17.884;2023-04-03T15:35:32;99411.22;;;3.52
75658;BMP280;64255;49.892;17.884;2023-04-03T15:38:18;99410.56;;;3.86
75658;BMP280;64255;49.892;17.884;2023-04-03T15:41:05;99415.78;;;3.52
75658;BMP280;64255;49.892;17.884;2023-04-03T15:43:51;99406.09;;;3.27
75658;BMP280;64255;49.892;17.884;2023-04-03T15:46:39;99406.81;;;3.84
75658;BMP280;64255;49.892;17.884;2023-04-03T15:49:26;99410.25;;;3.81
75658;BMP280;64255;49.892;17.884;2023-04-03T15:52:13;99406.72;;;3.46
75658;BMP280;64255;49.892;17.884;2023-04-03T15:54:59;99412.81;;;3.39
75658;BMP280;64255;49.892;17.884;2023-04-03T15:57:46;99413.69;;;3.21
75658;BMP280;64255;49.892;17.884;2023-04-03T16:00:33;99414.81;;;3.20
75658;BMP280;64255;49.892;17.884;2023-04-03T16:03:21;99419.38;;;3.13
75658;BMP280;64255;49.892;17.884;2023-04-03T16:06:08;99405.41;;;3.08
75658;BMP280;64255;49.892;17.884;2023-04-03T16:08:55;99421.94;;;3.31
75658;BMP280;64255;49.892;17.884;2023-04-03T16:11:41;99418.66;;;3.05
75658;BMP280;64255;49.892;17.884;2023-04-03T16:14:28;99422.41;;;3.07
75658;BMP280;64255;49.892;17.884;2023-04-03T16:17:15;99410.78;;;2.90
75658;BMP280;64255;49.892;17.884;2023-04-03T16:20:03;99421.38;;;2.90
75658;BMP280;64255;49.892;17.884;2023-04-03T16:22:50;99417.59;;;2.91
75658;BMP280;64255;49.892;17.884;2023-04-03T16:25:37;99421.75;;;2.92
75658;BMP280;64255;49.892;17.884;2023-04-03T16:28:23;99422.16;;;2.87
75658;BMP280;64255;49.892;17.884;2023-04-03T16:31:10;99424.03;;;2.87
75658;BMP280;64255;49.892;17.884;2023-04-03T16:33:56;99424.41;;;2.78
75658;BMP280;64255;49.892;17.884;2023-04-03T16:36:43;99423.69;;;2.74
75658;BMP280;64255;49.892;17.884;2023-04-03T16:39:29;99416.91;;;2.66
75658;BMP280;64255;49.892;17.884;2023-04-03T16:42:16;99424.50;;;2.63
75658;BMP280;64255;49.892;17.884;2023-04-03T16:45:03;99422.97;;;2.55
75658;BMP280;64255;49.892;17.884;2023-04-03T16:47:50;99430.53;;;2.64
75658;BMP280;64255;49.892;17.884;2023-04-03T16:50:36;99432.44;;;2.63
75658;BMP280;64255;49.892;17.884;2023-04-03T16:53:25;99435.47;;;2.51
75658;BMP280;64255;49.892;17.884;2023-04-03T16:56:11;99443.00;;;2.42
75658;BMP280;64255;49.892;17.884;2023-04-03T16:58:58;99438.06;;;2.69
75658;BMP280;64255;49.892;17.884;2023-04-03T17:01:44;99440.75;;;2.37
75658;BMP280;64255;49.892;17.884;2023-04-03T17:04:31;99446.44;;;2.39
75658;BMP280;64255;49.892;17.884;2023-04-03T17:07:20;99447.19;;;2.36
75658;BMP280;64255;49.892;17.884;2023-04-03T17:10:08;99446.44;;;2.28
75658;BMP280;64255;49.892;17.884;2023-04-03T17:12:54;99445.69;;;2.20
75658;BMP280;64255;49.892;17.884;2023-04-03T17:15:41;99454.00;;;2.22
75658;BMP280;64255;49.892;17.884;2023-04-03T17:18:27;99452.47;;;2.21
75658;BMP280;64255;49.892;17.884;2023-04-03T17:21:15;99458.91;;;2.13
75658;BMP280;64255;49.892;17.884;2023-04-03T17:24:05;99457.00;;;2.17
75658;BMP280;64255;49.892;17.884;2023-04-03T17:26:53;99461.16;;;2.11
75658;BMP280;64255;49.892;17.884;2023-04-03T17:29:40;99463.06;;;2.14
75658;BMP280;64255;49.892;17.884;2023-04-03T17:32:26;99467.19;;;2.04
75658;BMP280;64255;49.892;17.884;2023-04-03T17:35:13;99470.97;;;1.96